sensor_id;sensor_type;location;lat;lon;timestamp;P1;durP1;ratioP1;P2;durP2;ratioP2
4365;SDS011;2196;47.422;9.656;2023-01-09T00:00:38;20.10;;;16.97;;
4365;SDS011;2196;47.422;9.656;2023-01-09T00:03:06;22.80;;;17.37;;
4365;SDS011;2196;47.422;9.656;2023-01-09T00:05:33;20.60;;;17.40;;
4365;SDS011;2196;47.422;9.656;2023-01-09T00:08:00;20.53;;;16.03;;
4365;SDS011;2196;47.422;9.656;2023-01-09T00:10:27;18.77;;;16.13;;
4365;SDS011;2196;47.422;9.656;2023-01-09T00:12:54;22.63;;;18.07;;
4365;SDS011;2196;47.422;9.656;2023-01-09T00:15:21;18.47;;;16.50;;
4365;SDS011;2196;47.422;9.656;2023-01-09T00:17:50;22.83;;;16.87;;
4365;SDS011;2196;47.422;9.656;2023-01-09T00:20:17;22.67;;;18.00;;
4365;SDS011;2196;47.422;9.656;2023-01-09T00:22:44;20.10;;;16.63;;
4365;SDS011;2196;47.422;9.656;2023-01-09T00:25:11;21.37;;;18.00;;
4365;SDS011;2196;47.422;9.656;2023-01-09T00:27:38;23.90;;;18.73;;
4365;SDS011;2196;47.422;9.656;2023-01-09T00:30:05;22.17;;;17.90;;
4365;SDS011;2196;47.422;9.656;2023-01-09T00:32:33;21.97;;;18.30;;
4365;SDS011;2196;47.422;9.656;2023-01-09T00:35:02;22.48;;;19.80;;
4365;SDS011;2196;47.422;9.656;2023-01-09T00:37:29;22.10;;;19.33;;
4365;SDS011;2196;47.422;9.656;2023-01-09T00:39:56;20.30;;;17.47;;
4365;SDS011;2196;47.422;9.656;2023-01-09T00:42:24;20.60;;;17.33;;
4365;SDS011;2196;47.422;9.656;2023-01-09T00:44:54;18.93;;;16.53;;
4365;SDS011;2196;47.422;9.656;2023-01-09T00:47:26;20.13;;;16.27;;
4365;SDS011;2196;47.422;9.656;2023-01-09T00:50:03;21.20;;;16.97;;
4365;SDS011;2196;47.422;9.656;2023-01-09T00:52:33;22.70;;;16.97;;
4365;SDS011;2196;47.422;9.656;2023-01-09T00:55:02;18.37;;;15.63;;
4365;SDS011;2196;47.422;9.656;2023-01-09T00:57:30;17.83;;;15.93;;
4365;SDS011;2196;47.422;9.656;2023-01-09T00:59:58;21.20;;;17.17;;
4365;SDS011;2196;47.422;9.656;2023-01-09T01:02:25;20.93;;;18.17;;
4365;SDS011;2196;47.422;9.656;2023-01-09T01:04:52;23.87;;;19.90;;
4365;SDS011;2196;47.422;9.656;2023-01-09T01:07:38;22.07;;;18.30;;
4365;SDS011;2196;47.422;9.656;2023-01-09T01:10:08;24.90;;;18.70;;
4365;SDS011;2196;47.422;9.656;2023-01-09T01:12:38;22.87;;;17.47;;
4365;SDS011;2196;47.422;9.656;2023-01-09T01:15:05;21.17;;;17.87;;
4365;SDS011;2196;47.422;9.656;2023-01-09T01:17:34;21.07;;;17.47;;
4365;SDS011;2196;47.422;9.656;2023-01-09T01:20:02;20.03;;;17.83;;
4365;SDS011;2196;47.422;9.656;2023-01-09T01:22:30;23.80;;;18.43;;
4365;SDS011;2196;47.422;9.656;2023-01-09T01:24:58;20.80;;;18.47;;
4365;SDS011;2196;47.422;9.656;2023-01-09T01:27:26;23.97;;;18.77;;
4365;SDS011;2196;47.422;9.656;2023-01-09T01:29:53;22.97;;;17.63;;
4365;SDS011;2196;47.422;9.656;2023-01-09T01:32:21;22.00;;;18.93;;
4365;SDS011;2196;47.422;9.656;2023-01-09T01:34:48;24.47;;;19.90;;
4365;SDS011;2196;47.422;9.656;2023-01-09T01:37:15;23.50;;;19.73;;
4365;SDS011;2196;47.422;9.656;2023-01-09T01:39:42;23.87;;;19.63;;
4365;SDS011;2196;47.422;9.656;2023-01-09T01:42:11;27.27;;;20.00;;
4365;SDS011;2196;47.422;9.656;2023-01-09T01:47:28;25.33;;;21.13;;
4365;SDS011;2196;47.422;9.656;2023-01-09T01:50:00;22.30;;;19.10;;
4365;SDS011;2196;47.422;9.656;2023-01-09T01:52:31;22.40;;;19.73;;
4365;SDS011;2196;47.422;9.656;2023-01-09T01:55:00;23.93;;;19.60;;
4365;SDS011;2196;47.422;9.656;2023-01-09T01:57:30;22.20;;;19.77;;
4365;SDS011;2196;47.422;9.656;2023-01-09T01:59:59;23.83;;;20.20;;
4365;SDS011;2196;47.422;9.656;2023-01-09T02:02:28;21.73;;;19.30;;
4365;SDS011;2196;47.422;9.656;2023-01-09T02:04:58;22.83;;;18.40;;
4365;SDS011;2196;47.422;9.656;2023-01-09T02:07:27;25.57;;;20.40;;
4365;SDS011;2196;47.422;9.656;2023-01-09T02:09:55;27.27;;;20.77;;
4365;SDS011;2196;47.422;9.656;2023-01-09T02:12:23;24.67;;;20.00;;
4365;SDS011;2196;47.422;9.656;2023-01-09T02:14:53;24.77;;;21.00;;
4365;SDS011;2196;47.422;9.656;2023-01-09T02:26:35;23.67;;;18.83;;
4365;SDS011;2196;47.422;9.656;2023-01-09T02:32:37;23.80;;;18.43;;
4365;SDS011;2196;47.422;9.656;2023-01-09T02:35:18;23.07;;;19.20;;
4365;SDS011;2196;47.422;9.656;2023-01-09T02:37:56;23.83;;;20.00;;
4365;SDS011;2196;47.422;9.656;2023-01-09T02:40:32;24.07;;;19.83;;
4365;SDS011;2196;47.422;9.656;2023-01-09T02:43:04;22.77;;;19.10;;
4365;SDS011;2196;47.422;9.656;2023-01-09T02:45:33;22.27;;;19.67;;
4365;SDS011;2196;47.422;9.656;2023-01-09T02:48:02;24.17;;;19.13;;
4365;SDS011;2196;47.422;9.656;2023-01-09T02:50:31;25.37;;;20.13;;
4365;SDS011;2196;47.422;9.656;2023-01-09T02:56:18;22.10;;;18.57;;
4365;SDS011;2196;47.422;9.656;2023-01-09T02:59:02;24.77;;;20.70;;
4365;SDS011;2196;47.422;9.656;2023-01-09T03:01:41;26.67;;;20.43;;
4365;SDS011;2196;47.422;9.656;2023-01-09T03:04:19;23.13;;;19.30;;
4365;SDS011;2196;47.422;9.656;2023-01-09T03:07:06;19.50;;;15.73;;
4365;SDS011;2196;47.422;9.656;2023-01-09T03:09:38;16.40;;;13.93;;
4365;SDS011;2196;47.422;9.656;2023-01-09T03:12:08;12.97;;;11.60;;
4365;SDS011;2196;47.422;9.656;2023-01-09T03:14:42;13.30;;;11.47;;
4365;SDS011;2196;47.422;9.656;2023-01-09T03:17:12;7.43;;;6.20;;
4365;SDS011;2196;47.422;9.656;2023-01-09T03:19:45;9.30;;;7.03;;
4365;SDS011;2196;47.422;9.656;2023-01-09T03:22:14;7.43;;;5.83;;
4365;SDS011;2196;47.422;9.656;2023-01-09T03:24:41;17.00;;;14.23;;
4365;SDS011;2196;47.422;9.656;2023-01-09T03:27:09;18.37;;;14.63;;
4365;SDS011;2196;47.422;9.656;2023-01-09T03:29:36;18.67;;;14.10;;
4365;SDS011;2196;47.422;9.656;2023-01-09T03:32:04;18.20;;;15.17;;
4365;SDS011;2196;47.422;9.656;2023-01-09T03:34:31;18.33;;;15.77;;
4365;SDS011;2196;47.422;9.656;2023-01-09T03:37:00;17.23;;;15.37;;
4365;SDS011;2196;47.422;9.656;2023-01-09T03:39:30;18.43;;;14.93;;
4365;SDS011;2196;47.422;9.656;2023-01-09T03:41:57;16.87;;;14.73;;
4365;SDS011;2196;47.422;9.656;2023-01-09T03:44:24;17.63;;;15.77;;
4365;SDS011;2196;47.422;9.656;2023-01-09T03:46:51;18.00;;;16.03;;
4365;SDS011;2196;47.422;9.656;2023-01-09T03:49:18;19.03;;;15.60;;
4365;SDS011;2196;47.422;9.656;2023-01-09T03:51:45;18.73;;;15.60;;
4365;SDS011;2196;47.422;9.656;2023-01-09T03:54:14;17.47;;;15.57;;
4365;SDS011;2196;47.422;9.656;2023-01-09T03:56:41;18.70;;;15.73;;
4365;SDS011;2196;47.422;9.656;2023-01-09T03:59:08;16.33;;;13.53;;
4365;SDS011;2196;47.422;9.656;2023-01-09T04:01:35;6.23;;;5.63;;
4365;SDS011;2196;47.422;9.656;2023-01-09T04:04:02;1.73;;;1.63;;
4365;SDS011;2196;47.422;9.656;2023-01-09T04:06:29;0.60;;;0.60;;
4365;SDS011;2196;47.422;9.656;2023-01-09T04:08:56;0.10;;;0.10;;
4365;SDS011;2196;47.422;9.656;2023-01-09T04:11:24;0.03;;;0.03;;
4365;SDS011;2196;47.422;9.656;2023-01-09T04:13:51;0.20;;;0.00;;
4365;SDS011;2196;47.422;9.656;2023-01-09T04:16:18;0.00;;;0.00;;
4365;SDS011;2196;47.422;9.656;2023-01-09T04:18:45;1.07;;;0.00;;
4365;SDS011;2196;47.422;9.656;2023-01-09T04:21:12;0.00;;;0.00;;
4365;SDS011;2196;47.422;9.656;2023-01-09T04:23:39;0.00;;;0.00;;
4365;SDS011;2196;47.422;9.656;2023-01-09T04:26:06;0.00;;;0.00;;
4365;SDS011;2196;47.422;9.656;2023-01-09T04:28:34;0.00;;;0.00;;
4365;SDS011;2196;47.422;9.656;2023-01-09T04:31:01;0.00;;;0.00;;
4365;SDS011;2196;47.422;9.656;2023-01-09T04:33:29;0.33;;;0.00;;
4365;SDS011;2196;47.422;9.656;2023-01-09T04:35:56;0.77;;;0.00;;
4365;SDS011;2196;47.422;9.656;2023-01-09T04:38:23;0.00;;;0.00;;
4365;SDS011;2196;47.422;9.656;2023-01-09T04:40:51;0.00;;;0.00;;
4365;SDS011;2196;47.422;9.656;2023-01-09T04:43:18;0.00;;;0.00;;
4365;SDS011;2196;47.422;9.656;2023-01-09T04:45:46;0.00;;;0.00;;
4365;SDS011;2196;47.422;9.656;2023-01-09T04:48:13;0.20;;;0.20;;
4365;SDS011;2196;47.422;9.656;2023-01-09T04:50:40;0.20;;;0.00;;
4365;SDS011;2196;47.422;9.656;2023-01-09T04:53:07;0.00;;;0.00;;
4365;SDS011;2196;47.422;9.656;2023-01-09T04:55:34;0.60;;;0.60;;
4365;SDS011;2196;47.422;9.656;2023-01-09T04:58:01;0.00;;;0.00;;
4365;SDS011;2196;47.422;9.656;2023-01-09T05:00:28;0.20;;;0.00;;
4365;SDS011;2196;47.422;9.656;2023-01-09T05:02:57;0.10;;;0.00;;
4365;SDS011;2196;47.422;9.656;2023-01-09T05:05:24;0.20;;;0.00;;
4365;SDS011;2196;47.422;9.656;2023-01-09T05:07:51;0.00;;;0.00;;
4365;SDS011;2196;47.422;9.656;2023-01-09T05:10:18;0.00;;;0.00;;
4365;SDS011;2196;47.422;9.656;2023-01-09T05:12:45;1.17;;;0.00;;
4365;SDS011;2196;47.422;9.656;2023-01-09T05:15:12;0.10;;;0.00;;
4365;SDS011;2196;47.422;9.656;2023-01-09T05:17:39;0.10;;;0.10;;
4365;SDS011;2196;47.422;9.656;2023-01-09T05:20:08;0.93;;;0.03;;
4365;SDS011;2196;47.422;9.656;2023-01-09T05:22:35;0.20;;;0.10;;
4365;SDS011;2196;47.422;9.656;2023-01-09T05:25:03;1.20;;;0.13;;
4365;SDS011;2196;47.422;9.656;2023-01-09T05:27:30;0.00;;;0.00;;
4365;SDS011;2196;47.422;9.656;2023-01-09T05:29:57;0.10;;;0.10;;
4365;SDS011;2196;47.422;9.656;2023-01-09T05:32:24;0.10;;;0.00;;
4365;SDS011;2196;47.422;9.656;2023-01-09T05:34:51;0.00;;;0.00;;
4365;SDS011;2196;47.422;9.656;2023-01-09T05:37:20;0.00;;;0.00;;
4365;SDS011;2196;47.422;9.656;2023-01-09T05:39:47;0.00;;;0.00;;
4365;SDS011;2196;47.422;9.656;2023-01-09T05:42:14;0.30;;;0.10;;
4365;SDS011;2196;47.422;9.656;2023-01-09T05:44:41;0.30;;;0.00;;
4365;SDS011;2196;47.422;9.656;2023-01-09T05:47:08;0.30;;;0.00;;
4365;SDS011;2196;47.422;9.656;2023-01-09T05:49:35;0.00;;;0.00;;
4365;SDS011;2196;47.422;9.656;2023-01-09T05:52:05;0.00;;;0.00;;
4365;SDS011;2196;47.422;9.656;2023-01-09T05:54:34;0.00;;;0.00;;
4365;SDS011;2196;47.422;9.656;2023-01-09T05:57:01;0.00;;;0.00;;
4365;SDS011;2196;47.422;9.656;2023-01-09T05:59:28;0.30;;;0.00;;
4365;SDS011;2196;47.422;9.656;2023-01-09T06:01:55;0.97;;;0.23;;
4365;SDS011;2196;47.422;9.656;2023-01-09T06:04:22;0.00;;;0.00;;
4365;SDS011;2196;47.422;9.656;2023-01-09T06:06:53;0.40;;;0.00;;
4365;SDS011;2196;47.422;9.656;2023-01-09T06:09:20;0.10;;;0.10;;
4365;SDS011;2196;47.422;9.656;2023-01-09T06:11:49;0.10;;;0.10;;
4365;SDS011;2196;47.422;9.656;2023-01-09T06:14:16;0.00;;;0.00;;
4365;SDS011;2196;47.422;9.656;2023-01-09T06:16:43;0.00;;;0.00;;
4365;SDS011;2196;47.422;9.656;2023-01-09T06:19:10;0.00;;;0.00;;
4365;SDS011;2196;47.422;9.656;2023-01-09T06:21:37;0.20;;;0.10;;
4365;SDS011;2196;47.422;9.656;2023-01-09T06:24:04;0.00;;;0.00;;
4365;SDS011;2196;47.422;9.656;2023-01-09T06:26:32;0.00;;;0.00;;
4365;SDS011;2196;47.422;9.656;2023-01-09T06:29:00;0.00;;;0.00;;
4365;SDS011;2196;47.422;9.656;2023-01-09T06:31:27;4.13;;;0.30;;
4365;SDS011;2196;47.422;9.656;2023-01-09T06:33:54;0.00;;;0.00;;
4365;SDS011;2196;47.422;9.656;2023-01-09T06:36:21;0.10;;;0.00;;
4365;SDS011;2196;47.422;9.656;2023-01-09T06:38:48;0.20;;;0.00;;
4365;SDS011;2196;47.422;9.656;2023-01-09T06:41:15;0.10;;;0.00;;
4365;SDS011;2196;47.422;9.656;2023-01-09T06:43:43;0.83;;;0.00;;
4365;SDS011;2196;47.422;9.656;2023-01-09T06:46:11;0.30;;;0.20;;
4365;SDS011;2196;47.422;9.656;2023-01-09T06:48:38;1.03;;;0.10;;
4365;SDS011;2196;47.422;9.656;2023-01-09T06:51:05;0.00;;;0.00;;
4365;SDS011;2196;47.422;9.656;2023-01-09T06:53:36;0.60;;;0.40;;
4365;SDS011;2196;47.422;9.656;2023-01-09T06:56:03;0.40;;;0.40;;
4365;SDS011;2196;47.422;9.656;2023-01-09T06:58:31;0.50;;;0.33;;
4365;SDS011;2196;47.422;9.656;2023-01-09T07:00:58;1.17;;;1.00;;
4365;SDS011;2196;47.422;9.656;2023-01-09T07:03:27;0.73;;;0.70;;
4365;SDS011;2196;47.422;9.656;2023-01-09T07:05:54;0.47;;;0.47;;
4365;SDS011;2196;47.422;9.656;2023-01-09T07:08:21;0.97;;;0.73;;
4365;SDS011;2196;47.422;9.656;2023-01-09T07:10:48;0.60;;;0.50;;
4365;SDS011;2196;47.422;9.656;2023-01-09T07:13:14;0.70;;;0.70;;
4365;SDS011;2196;47.422;9.656;2023-01-09T07:15:41;0.70;;;0.70;;
4365;SDS011;2196;47.422;9.656;2023-01-09T07:18:08;2.23;;;0.70;;
4365;SDS011;2196;47.422;9.656;2023-01-09T07:20:38;1.63;;;0.53;;
4365;SDS011;2196;47.422;9.656;2023-01-09T07:23:05;0.80;;;0.53;;
4365;SDS011;2196;47.422;9.656;2023-01-09T07:25:33;2.37;;;1.07;;
4365;SDS011;2196;47.422;9.656;2023-01-09T07:28:00;2.20;;;1.20;;
4365;SDS011;2196;47.422;9.656;2023-01-09T07:30:27;2.03;;;0.70;;
4365;SDS011;2196;47.422;9.656;2023-01-09T07:32:54;0.87;;;0.87;;
4365;SDS011;2196;47.422;9.656;2023-01-09T07:35:21;0.83;;;0.67;;
4365;SDS011;2196;47.422;9.656;2023-01-09T07:37:49;0.53;;;0.53;;
4365;SDS011;2196;47.422;9.656;2023-01-09T07:40:16;0.60;;;0.60;;
4365;SDS011;2196;47.422;9.656;2023-01-09T07:42:43;4.43;;;0.70;;
4365;SDS011;2196;47.422;9.656;2023-01-09T07:45:10;1.33;;;1.23;;
4365;SDS011;2196;47.422;9.656;2023-01-09T07:47:38;0.67;;;0.67;;
4365;SDS011;2196;47.422;9.656;2023-01-09T07:50:06;2.40;;;2.23;;
4365;SDS011;2196;47.422;9.656;2023-01-09T07:52:34;2.63;;;1.93;;
4365;SDS011;2196;47.422;9.656;2023-01-09T07:55:02;9.17;;;3.63;;
4365;SDS011;2196;47.422;9.656;2023-01-09T07:57:30;4.43;;;3.60;;
4365;SDS011;2196;47.422;9.656;2023-01-09T07:59:57;8.17;;;7.37;;
4365;SDS011;2196;47.422;9.656;2023-01-09T08:02:25;7.87;;;7.03;;
4365;SDS011;2196;47.422;9.656;2023-01-09T08:04:52;7.97;;;6.63;;
4365;SDS011;2196;47.422;9.656;2023-01-09T08:07:19;5.83;;;5.27;;
4365;SDS011;2196;47.422;9.656;2023-01-09T08:09:46;5.77;;;5.13;;
4365;SDS011;2196;47.422;9.656;2023-01-09T08:12:14;3.63;;;3.33;;
4365;SDS011;2196;47.422;9.656;2023-01-09T08:14:41;2.90;;;2.70;;
4365;SDS011;2196;47.422;9.656;2023-01-09T08:17:08;3.17;;;1.83;;
4365;SDS011;2196;47.422;9.656;2023-01-09T08:19:35;2.60;;;1.10;;
4365;SDS011;2196;47.422;9.656;2023-01-09T08:22:02;1.23;;;0.40;;
4365;SDS011;2196;47.422;9.656;2023-01-09T08:24:29;0.20;;;0.20;;
4365;SDS011;2196;47.422;9.656;2023-01-09T08:26:56;1.27;;;0.30;;
4365;SDS011;2196;47.422;9.656;2023-01-09T08:29:25;0.30;;;0.20;;
4365;SDS011;2196;47.422;9.656;2023-01-09T08:31:53;0.40;;;0.20;;
4365;SDS011;2196;47.422;9.656;2023-01-09T08:34:20;0.67;;;0.57;;
4365;SDS011;2196;47.422;9.656;2023-01-09T08:36:47;0.30;;;0.30;;
4365;SDS011;2196;47.422;9.656;2023-01-09T08:39:14;0.77;;;0.30;;
4365;SDS011;2196;47.422;9.656;2023-01-09T08:41:41;0.30;;;0.30;;
4365;SDS011;2196;47.422;9.656;2023-01-09T08:44:27;1.50;;;0.30;;
4365;SDS011;2196;47.422;9.656;2023-01-09T08:47:11;2.77;;;0.30;;
4365;SDS011;2196;47.422;9.656;2023-01-09T08:49:40;3.73;;;0.40;;
4365;SDS011;2196;47.422;9.656;2023-01-09T08:52:07;0.20;;;0.20;;
4365;SDS011;2196;47.422;9.656;2023-01-09T08:54:34;0.67;;;0.23;;
4365;SDS011;2196;47.422;9.656;2023-01-09T08:57:03;0.40;;;0.20;;
4365;SDS011;2196;47.422;9.656;2023-01-09T08:59:35;0.20;;;0.20;;
4365;SDS011;2196;47.422;9.656;2023-01-09T09:02:02;0.20;;;0.20;;
4365;SDS011;2196;47.422;9.656;2023-01-09T09:04:29;0.10;;;0.10;;
4365;SDS011;2196;47.422;9.656;2023-01-09T09:06:56;1.27;;;0.20;;
4365;SDS011;2196;47.422;9.656;2023-01-09T09:09:23;0.10;;;0.10;;
4365;SDS011;2196;47.422;9.656;2023-01-09T09:11:50;0.60;;;0.10;;
4365;SDS011;2196;47.422;9.656;2023-01-09T09:14:17;1.47;;;0.20;;
4365;SDS011;2196;47.422;9.656;2023-01-09T09:17:03;0.17;;;0.10;;
4365;SDS011;2196;47.422;9.656;2023-01-09T09:19:30;0.20;;;0.20;;
4365;SDS011;2196;47.422;9.656;2023-01-09T09:21:57;0.37;;;0.23;;
4365;SDS011;2196;47.422;9.656;2023-01-09T09:24:24;0.10;;;0.10;;
4365;SDS011;2196;47.422;9.656;2023-01-09T09:26:51;2.27;;;1.17;;
4365;SDS011;2196;47.422;9.656;2023-01-09T09:29:18;1.40;;;0.67;;
4365;SDS011;2196;47.422;9.656;2023-01-09T09:31:45;0.50;;;0.40;;
4365;SDS011;2196;47.422;9.656;2023-01-09T09:34:13;1.15;;;0.40;;
4365;SDS011;2196;47.422;9.656;2023-01-09T09:36:40;1.50;;;0.63;;
4365;SDS011;2196;47.422;9.656;2023-01-09T09:39:08;0.60;;;0.60;;
4365;SDS011;2196;47.422;9.656;2023-01-09T09:41:39;3.03;;;0.30;;
4365;SDS011;2196;47.422;9.656;2023-01-09T09:44:46;0.50;;;0.47;;
4365;SDS011;2196;47.422;9.656;2023-01-09T09:47:30;0.60;;;0.60;;
4365;SDS011;2196;47.422;9.656;2023-01-09T09:50:14;0.87;;;0.87;;
4365;SDS011;2196;47.422;9.656;2023-01-09T09:52:53;0.50;;;0.50;;
4365;SDS011;2196;47.422;9.656;2023-01-09T09:55:25;1.13;;;0.50;;
4365;SDS011;2196;47.422;9.656;2023-01-09T09:57:57;0.37;;;0.20;;
4365;SDS011;2196;47.422;9.656;2023-01-09T10:00:26;0.30;;;0.10;;
4365;SDS011;2196;47.422;9.656;2023-01-09T10:02:55;1.50;;;0.20;;
4365;SDS011;2196;47.422;9.656;2023-01-09T10:05:27;0.83;;;0.20;;
4365;SDS011;2196;47.422;9.656;2023-01-09T10:07:57;0.40;;;0.10;;
4365;SDS011;2196;47.422;9.656;2023-01-09T10:10:31;0.40;;;0.40;;
4365;SDS011;2196;47.422;9.656;2023-01-09T10:13:03;1.10;;;0.37;;
4365;SDS011;2196;47.422;9.656;2023-01-09T10:15:45;0.10;;;0.10;;
4365;SDS011;2196;47.422;9.656;2023-01-09T10:18:22;0.77;;;0.10;;
4365;SDS011;2196;47.422;9.656;2023-01-09T10:20:59;0.27;;;0.10;;
4365;SDS011;2196;47.422;9.656;2023-01-09T10:23:45;0.10;;;0.10;;
4365;SDS011;2196;47.422;9.656;2023-01-09T10:26:27;1.17;;;0.20;;
4365;SDS011;2196;47.422;9.656;2023-01-09T10:29:05;0.30;;;0.30;;
4365;SDS011;2196;47.422;9.656;2023-01-09T10:31:44;0.47;;;0.47;;
4365;SDS011;2196;47.422;9.656;2023-01-09T10:34:24;0.30;;;0.10;;
4365;SDS011;2196;47.422;9.656;2023-01-09T10:37:00;0.10;;;0.10;;
4365;SDS011;2196;47.422;9.656;2023-01-09T10:39:37;0.23;;;0.20;;
4365;SDS011;2196;47.422;9.656;2023-01-09T10:42:09;0.30;;;0.30;;
4365;SDS011;2196;47.422;9.656;2023-01-09T10:44:46;0.10;;;0.10;;
4365;SDS011;2196;47.422;9.656;2023-01-09T10:47:21;0.20;;;0.20;;
4365;SDS011;2196;47.422;9.656;2023-01-09T10:49:51;4.20;;;0.93;;
4365;SDS011;2196;47.422;9.656;2023-01-09T10:52:23;0.60;;;0.60;;
4365;SDS011;2196;47.422;9.656;2023-01-09T10:54:54;1.07;;;0.43;;
4365;SDS011;2196;47.422;9.656;2023-01-09T10:57:27;0.50;;;0.33;;
4365;SDS011;2196;47.422;9.656;2023-01-09T11:00:04;2.00;;;0.50;;
4365;SDS011;2196;47.422;9.656;2023-01-09T11:02:33;0.47;;;0.40;;
4365;SDS011;2196;47.422;9.656;2023-01-09T11:05:00;0.30;;;0.30;;
4365;SDS011;2196;47.422;9.656;2023-01-09T11:07:29;1.17;;;0.30;;
4365;SDS011;2196;47.422;9.656;2023-01-09T11:10:00;1.07;;;0.40;;
4365;SDS011;2196;47.422;9.656;2023-01-09T11:12:30;0.20;;;0.20;;
4365;SDS011;2196;47.422;9.656;2023-01-09T11:15:16;0.20;;;0.20;;
4365;SDS011;2196;47.422;9.656;2023-01-09T11:20:49;1.63;;;0.50;;
4365;SDS011;2196;47.422;9.656;2023-01-09T11:23:27;0.43;;;0.43;;
4365;SDS011;2196;47.422;9.656;2023-01-09T11:25:57;0.60;;;0.60;;
4365;SDS011;2196;47.422;9.656;2023-01-09T11:28:26;0.70;;;0.60;;
4365;SDS011;2196;47.422;9.656;2023-01-09T11:30:54;0.77;;;0.70;;
4365;SDS011;2196;47.422;9.656;2023-01-09T11:33:24;0.97;;;0.97;;
4365;SDS011;2196;47.422;9.656;2023-01-09T11:35:55;0.70;;;0.40;;
4365;SDS011;2196;47.422;9.656;2023-01-09T11:38:29;1.77;;;0.83;;
4365;SDS011;2196;47.422;9.656;2023-01-09T11:40:58;0.80;;;0.80;;
4365;SDS011;2196;47.422;9.656;2023-01-09T11:43:30;1.13;;;0.40;;
4365;SDS011;2196;47.422;9.656;2023-01-09T11:46:02;1.00;;;0.60;;
4365;SDS011;2196;47.422;9.656;2023-01-09T11:48:34;0.80;;;0.40;;
4365;SDS011;2196;47.422;9.656;2023-01-09T11:51:04;0.70;;;0.30;;
4365;SDS011;2196;47.422;9.656;2023-01-09T11:53:49;0.67;;;0.40;;
4365;SDS011;2196;47.422;9.656;2023-01-09T11:56:31;1.55;;;0.43;;
4365;SDS011;2196;47.422;9.656;2023-01-09T11:58:58;1.23;;;1.20;;
4365;SDS011;2196;47.422;9.656;2023-01-09T12:01:38;1.13;;;0.40;;
4365;SDS011;2196;47.422;9.656;2023-01-09T12:04:21;0.50;;;0.50;;
4365;SDS011;2196;47.422;9.656;2023-01-09T12:07:04;0.73;;;0.37;;
4365;SDS011;2196;47.422;9.656;2023-01-09T12:09:58;0.30;;;0.30;;
4365;SDS011;2196;47.422;9.656;2023-01-09T12:12:32;0.30;;;0.30;;
4365;SDS011;2196;47.422;9.656;2023-01-09T12:15:11;0.60;;;0.40;;
4365;SDS011;2196;47.422;9.656;2023-01-09T12:17:49;0.40;;;0.30;;
4365;SDS011;2196;47.422;9.656;2023-01-09T12:20:41;0.20;;;0.20;;
4365;SDS011;2196;47.422;9.656;2023-01-09T12:23:22;1.17;;;0.20;;
4365;SDS011;2196;47.422;9.656;2023-01-09T12:25:59;0.97;;;0.30;;
4365;SDS011;2196;47.422;9.656;2023-01-09T12:28:56;0.23;;;0.23;;
4365;SDS011;2196;47.422;9.656;2023-01-09T12:32:01;2.10;;;0.37;;
4365;SDS011;2196;47.422;9.656;2023-01-09T12:34:42;1.00;;;0.23;;
4365;SDS011;2196;47.422;9.656;2023-01-09T12:37:26;0.97;;;0.30;;
4365;SDS011;2196;47.422;9.656;2023-01-09T12:40:03;0.83;;;0.70;;
4365;SDS011;2196;47.422;9.656;2023-01-09T12:42:45;0.40;;;0.40;;
4365;SDS011;2196;47.422;9.656;2023-01-09T12:45:28;1.47;;;0.40;;
4365;SDS011;2196;47.422;9.656;2023-01-09T12:48:06;0.50;;;0.50;;
4365;SDS011;2196;47.422;9.656;2023-01-09T12:50:47;0.93;;;0.37;;
4365;SDS011;2196;47.422;9.656;2023-01-09T12:53:36;1.83;;;0.50;;
4365;SDS011;2196;47.422;9.656;2023-01-09T12:56:09;0.50;;;0.47;;
4365;SDS011;2196;47.422;9.656;2023-01-09T12:58:41;0.83;;;0.30;;
4365;SDS011;2196;47.422;9.656;2023-01-09T13:01:14;1.53;;;0.40;;
4365;SDS011;2196;47.422;9.656;2023-01-09T13:03:47;1.10;;;0.20;;
4365;SDS011;2196;47.422;9.656;2023-01-09T13:06:19;0.73;;;0.30;;
4365;SDS011;2196;47.422;9.656;2023-01-09T13:08:49;0.57;;;0.50;;
4365;SDS011;2196;47.422;9.656;2023-01-09T13:11:23;0.83;;;0.20;;
4365;SDS011;2196;47.422;9.656;2023-01-09T13:13:56;0.10;;;0.10;;
4365;SDS011;2196;47.422;9.656;2023-01-09T13:16:27;0.30;;;0.20;;
4365;SDS011;2196;47.422;9.656;2023-01-09T13:18:59;0.10;;;0.10;;
4365;SDS011;2196;47.422;9.656;2023-01-09T13:21:33;0.10;;;0.10;;
4365;SDS011;2196;47.422;9.656;2023-01-09T13:24:02;0.07;;;0.07;;
4365;SDS011;2196;47.422;9.656;2023-01-09T13:26:36;0.10;;;0.00;;
4365;SDS011;2196;47.422;9.656;2023-01-09T13:29:14;0.20;;;0.20;;
4365;SDS011;2196;47.422;9.656;2023-01-09T13:31:51;1.40;;;1.20;;
4365;SDS011;2196;47.422;9.656;2023-01-09T13:34:39;15.27;;;12.00;;
4365;SDS011;2196;47.422;9.656;2023-01-09T13:37:14;6.17;;;4.23;;
4365;SDS011;2196;47.422;9.656;2023-01-09T13:39:53;1.43;;;0.87;;
4365;SDS011;2196;47.422;9.656;2023-01-09T13:42:22;0.40;;;0.40;;
4365;SDS011;2196;47.422;9.656;2023-01-09T13:45:18;4.93;;;3.27;;
4365;SDS011;2196;47.422;9.656;2023-01-09T13:47:54;0.93;;;0.50;;
4365;SDS011;2196;47.422;9.656;2023-01-09T13:53:59;0.77;;;0.20;;
4365;SDS011;2196;47.422;9.656;2023-01-09T13:56:26;0.40;;;0.20;;
4365;SDS011;2196;47.422;9.656;2023-01-09T13:58:56;1.07;;;0.20;;
4365;SDS011;2196;47.422;9.656;2023-01-09T14:01:43;0.20;;;0.20;;
4365;SDS011;2196;47.422;9.656;2023-01-09T14:07:13;0.20;;;0.10;;
4365;SDS011;2196;47.422;9.656;2023-01-09T14:09:45;0.30;;;0.20;;
4365;SDS011;2196;47.422;9.656;2023-01-09T14:12:14;1.17;;;0.40;;
4365;SDS011;2196;47.422;9.656;2023-01-09T14:14:44;0.43;;;0.27;;
4365;SDS011;2196;47.422;9.656;2023-01-09T14:17:18;0.27;;;0.20;;
4365;SDS011;2196;47.422;9.656;2023-01-09T14:19:53;0.30;;;0.27;;
4365;SDS011;2196;47.422;9.656;2023-01-09T14:22:23;5.50;;;2.43;;
4365;SDS011;2196;47.422;9.656;2023-01-09T14:24:51;1.23;;;0.93;;
4365;SDS011;2196;47.422;9.656;2023-01-09T14:30:33;1.83;;;1.53;;
4365;SDS011;2196;47.422;9.656;2023-01-09T14:33:03;1.43;;;1.33;;
4365;SDS011;2196;47.422;9.656;2023-01-09T14:35:47;0.83;;;0.50;;
4365;SDS011;2196;47.422;9.656;2023-01-09T14:38:22;2.67;;;0.60;;
4365;SDS011;2196;47.422;9.656;2023-01-09T14:40:53;0.57;;;0.50;;
4365;SDS011;2196;47.422;9.656;2023-01-09T14:43:37;1.00;;;0.50;;
4365;SDS011;2196;47.422;9.656;2023-01-09T14:46:11;0.30;;;0.30;;
4365;SDS011;2196;47.422;9.656;2023-01-09T14:48:44;0.47;;;0.47;;
4365;SDS011;2196;47.422;9.656;2023-01-09T14:51:24;0.90;;;0.20;;
4365;SDS011;2196;47.422;9.656;2023-01-09T14:53:53;0.50;;;0.47;;
4365;SDS011;2196;47.422;9.656;2023-01-09T14:56:26;0.70;;;0.50;;
4365;SDS011;2196;47.422;9.656;2023-01-09T14:59:04;0.47;;;0.40;;
4365;SDS011;2196;47.422;9.656;2023-01-09T15:01:35;4.73;;;1.30;;
4365;SDS011;2196;47.422;9.656;2023-01-09T15:04:09;2.50;;;1.30;;
4365;SDS011;2196;47.422;9.656;2023-01-09T15:06:47;4.10;;;1.27;;
4365;SDS011;2196;47.422;9.656;2023-01-09T15:09:16;1.50;;;1.40;;
4365;SDS011;2196;47.422;9.656;2023-01-09T15:11:48;9.40;;;8.57;;
4365;SDS011;2196;47.422;9.656;2023-01-09T15:14:21;5.17;;;2.43;;
4365;SDS011;2196;47.422;9.656;2023-01-09T15:16:55;1.70;;;0.50;;
4365;SDS011;2196;47.422;9.656;2023-01-09T15:19:25;1.30;;;0.30;;
4365;SDS011;2196;47.422;9.656;2023-01-09T15:21:57;0.43;;;0.30;;
4365;SDS011;2196;47.422;9.656;2023-01-09T15:24:26;0.83;;;0.60;;
4365;SDS011;2196;47.422;9.656;2023-01-09T15:26:55;0.70;;;0.60;;
4365;SDS011;2196;47.422;9.656;2023-01-09T15:29:23;2.73;;;0.60;;
4365;SDS011;2196;47.422;9.656;2023-01-09T15:31:52;1.33;;;0.30;;
4365;SDS011;2196;47.422;9.656;2023-01-09T15:34:22;0.60;;;0.30;;
4365;SDS011;2196;47.422;9.656;2023-01-09T15:36:52;1.60;;;1.50;;
4365;SDS011;2196;47.422;9.656;2023-01-09T15:39:21;9.47;;;1.87;;
4365;SDS011;2196;47.422;9.656;2023-01-09T15:41:50;2.53;;;1.40;;
4365;SDS011;2196;47.422;9.656;2023-01-09T15:44:36;1.60;;;1.50;;
4365;SDS011;2196;47.422;9.656;2023-01-09T15:47:11;1.77;;;1.13;;
4365;SDS011;2196;47.422;9.656;2023-01-09T15:49:41;0.73;;;0.50;;
4365;SDS011;2196;47.422;9.656;2023-01-09T15:52:10;2.57;;;0.90;;
4365;SDS011;2196;47.422;9.656;2023-01-09T15:54:41;2.20;;;0.80;;
4365;SDS011;2196;47.422;9.656;2023-01-09T15:57:25;0.97;;;0.90;;
4365;SDS011;2196;47.422;9.656;2023-01-09T16:00:21;0.73;;;0.60;;
4365;SDS011;2196;47.422;9.656;2023-01-09T16:03:21;2.83;;;0.83;;